createdAt,value
2023-03-01T00:01:31.791Z,72.40
2023-03-01T00:04:54.058Z,72.00
2023-03-01T00:08:16.281Z,71.90
2023-03-01T00:11:38.774Z,71.60
2023-03-01T00:15:01.084Z,71.00
2023-03-01T00:18:23.636Z,70.60
2023-03-01T00:21:45.935Z,70.30
2023-03-01T00:25:08.539Z,69.80
2023-03-01T00:28:30.745Z,69.70
2023-03-01T00:31:53.109Z,69.30
2023-03-01T00:35:15.513Z,69.20
2023-03-01T00:38:39.450Z,69.00
2023-03-01T00:42:01.793Z,68.90
2023-03-01T00:45:24.203Z,68.80
2023-03-01T00:48:46.984Z,68.50
2023-03-01T00:52:09.276Z,68.30
2023-03-01T00:55:31.628Z,68.50
2023-03-01T00:58:54.100Z,68.20
2023-03-01T01:02:16.417Z,68.30
2023-03-01T01:05:38.816Z,68.10
2023-03-01T01:09:01.673Z,68.00
2023-03-01T01:12:24.078Z,68.00
2023-03-01T01:15:46.376Z,68.60
2023-03-01T01:19:10.023Z,67.50
2023-03-01T01:22:32.354Z,67.60
2023-03-01T01:25:54.718Z,67.50
2023-03-01T01:29:17.195Z,67.30
2023-03-01T01:32:39.626Z,67.50
2023-03-01T01:36:01.912Z,67.30
2023-03-01T01:39:24.324Z,67.50
2023-03-01T01:42:46.799Z,67.50
2023-03-01T01:46:18.059Z,67.20
2023-03-01T01:49:50.479Z,67.20
2023-03-01T01:53:17.440Z,67.00
2023-03-01T01:56:43.691Z,67.30
2023-03-01T02:00:10.474Z,67.20
2023-03-01T02:03:43.319Z,67.10
2023-03-01T02:07:17.284Z,67.10
2023-03-01T02:10:40.335Z,67.00
2023-03-01T02:14:02.687Z,67.10
2023-03-01T02:17:25.370Z,67.90
2023-03-01T02:20:59.774Z,66.90
2023-03-01T02:24:54.454Z,67.10
2023-03-01T02:28:16.739Z,67.10
2023-03-01T02:31:45.906Z,67.00
2023-03-01T02:35:11.337Z,67.00
2023-03-01T02:38:33.457Z,66.70
2023-03-01T02:41:58.832Z,66.70
2023-03-01T02:45:22.173Z,66.60
2023-03-01T02:48:51.425Z,66.60
2023-03-01T02:52:26.075Z,66.60
2023-03-01T02:55:48.956Z,66.60
2023-03-01T02:59:12.557Z,66.40
2023-03-01T03:02:38.227Z,66.30
2023-03-01T03:06:10.182Z,66.40
2023-03-01T03:09:32.590Z,66.30
2023-03-01T03:13:00.584Z,66.40
2023-03-01T03:16:23.408Z,66.40
2023-03-01T03:19:46.430Z,66.40
2023-03-01T03:23:08.944Z,66.40
2023-03-01T03:26:32.082Z,66.40
2023-03-01T03:29:54.673Z,66.40
2023-03-01T03:33:17.011Z,66.60
2023-03-01T03:36:39.256Z,66.60
2023-03-01T03:40:01.497Z,66.50
2023-03-01T03:43:24.439Z,66.40
2023-03-01T03:46:46.744Z,66.40
2023-03-01T03:50:11.309Z,66.20
2023-03-01T03:53:34.659Z,65.50
2023-03-01T03:56:56.965Z,65.90
2023-03-01T04:00:22.146Z,66.60
2023-03-01T04:03:47.674Z,66.40
2023-03-01T04:07:09.917Z,66.40
2023-03-01T04:10:42.036Z,66.10
2023-03-01T04:14:05.424Z,66.10
2023-03-01T04:17:28.053Z,66.30
2023-03-01T04:20:53.169Z,66.10
2023-03-01T04:24:15.516Z,65.80
2023-03-01T04:27:38.445Z,65.70
2023-03-01T04:31:14.462Z,66.10
2023-03-01T04:34:36.846Z,66.00
2023-03-01T04:37:59.461Z,65.90
2023-03-01T04:41:23.591Z,65.80
2023-03-01T04:44:46.619Z,65.80
2023-03-01T04:48:09.049Z,65.70
2023-03-01T04:51:33.150Z,65.70
2023-03-01T04:54:55.358Z,65.50
2023-03-01T04:58:17.623Z,65.50
2023-03-01T05:01:40.126Z,65.60
2023-03-01T05:05:02.402Z,65.50
2023-03-01T05:08:24.583Z,65.60
2023-03-01T05:11:47.083Z,65.40
2023-03-01T05:15:09.623Z,65.80
2023-03-01T05:18:34.373Z,65.90
2023-03-01T05:22:02.751Z,65.70
2023-03-01T05:25:25.466Z,66.40
2023-03-01T05:28:47.752Z,65.50
2023-03-01T05:32:10.754Z,65.30
2023-03-01T05:35:34.431Z,65.10
2023-03-01T05:38:56.874Z,65.10
2023-03-01T05:42:19.163Z,65.10
2023-03-01T05:45:42.484Z,65.20
2023-03-01T05:49:05.310Z,65.20
2023-03-01T05:52:27.526Z,65.20
2023-03-01T05:55:50.797Z,65.20
2023-03-01T05:59:13.143Z,65.20
2023-03-01T06:02:35.448Z,65.30
2023-03-01T06:05:59.140Z,65.40
2023-03-01T06:09:21.426Z,65.30
2023-03-01T06:12:44.812Z,65.20
2023-03-01T06:16:08.132Z,65.20
2023-03-01T06:19:30.570Z,65.20
2023-03-01T06:22:53.107Z,65.20
2023-03-01T06:26:15.453Z,65.20
2023-03-01T06:29:37.751Z,65.10
2023-03-01T06:33:04.041Z,65.00
2023-03-01T06:36:26.362Z,65.00
2023-03-01T06:39:48.669Z,65.80
2023-03-01T06:43:10.925Z,64.90
2023-03-01T06:46:33.635Z,64.80
2023-03-01T06:49:56.150Z,64.90
2023-03-01T06:53:18.427Z,64.90
2023-03-01T06:56:40.639Z,64.90
2023-03-01T07:00:04.531Z,65.00
2023-03-01T07:03:26.771Z,65.10
2023-03-01T07:06:55.266Z,65.20
2023-03-01T07:10:17.709Z,65.20
2023-03-01T07:13:40.152Z,65.20
2023-03-01T07:17:02.415Z,65.10
2023-03-01T07:20:26.406Z,65.10
2023-03-01T07:23:50.128Z,65.10
2023-03-01T07:27:13.689Z,65.00
2023-03-01T07:30:35.965Z,64.70
2023-03-01T07:33:58.508Z,63.70
2023-03-01T07:37:20.750Z,63.80
2023-03-01T07:40:43.018Z,64.40
2023-03-01T07:44:05.505Z,64.90
2023-03-01T07:47:27.846Z,65.20
2023-03-01T07:50:50.120Z,66.10
2023-03-01T07:54:12.412Z,65.10
2023-03-01T07:57:34.704Z,65.60
2023-03-01T08:00:57.007Z,66.50
2023-03-01T08:04:19.343Z,66.30
2023-03-01T08:07:41.682Z,66.30
2023-03-01T08:11:05.701Z,65.50
2023-03-01T08:14:28.074Z,65.80
2023-03-01T08:17:51.581Z,65.70
2023-03-01T08:21:16.877Z,66.40
2023-03-01T08:24:39.162Z,67.20
2023-03-01T08:28:01.357Z,68.40
2023-03-01T08:31:28.395Z,68.40
2023-03-01T08:34:50.691Z,68.20
2023-03-01T08:38:12.850Z,68.40
2023-03-01T08:41:35.332Z,68.80
2023-03-01T08:44:57.758Z,67.80
2023-03-01T08:48:20.099Z,67.80
2023-03-01T08:51:42.752Z,69.00
2023-03-01T08:55:05.185Z,68.70
2023-03-01T08:58:27.311Z,68.20
2023-03-01T09:01:49.517Z,68.80
2023-03-01T09:05:11.709Z,68.50
2023-03-01T09:08:38.729Z,68.20
2023-03-01T09:12:01.010Z,69.00
2023-03-01T09:15:23.176Z,71.90
2023-03-01T09:18:45.575Z,71.30
2023-03-01T09:22:07.871Z,70.10
2023-03-01T09:25:29.988Z,71.00
2023-03-01T09:28:53.043Z,71.00
2023-03-01T09:32:15.256Z,71.10
2023-03-01T09:35:47.884Z,71.50
2023-03-01T09:39:10.028Z,71.50
2023-03-01T09:42:36.909Z,72.00
2023-03-01T09:46:05.588Z,71.10
2023-03-01T09:49:37.803Z,71.20
2023-03-01T09:53:04.593Z,71.80
2023-03-01T09:56:31.462Z,71.20
2023-03-01T10:00:12.675Z,71.10
2023-03-01T10:03:41.325Z,69.00
2023-03-01T10:07:13.797Z,69.80
2023-03-01T10:10:38.182Z,69.50
2023-03-01T10:14:00.301Z,70.10
2023-03-01T10:17:28.671Z,69.80
2023-03-01T10:20:59.696Z,68.80
2023-03-01T10:24:22.678Z,68.70
2023-03-01T10:28:02.611Z,69.50
2023-03-01T10:31:30.472Z,71.90
2023-03-01T10:34:53.043Z,70.80
2023-03-01T10:38:16.743Z,69.90
2023-03-01T10:41:52.583Z,69.40
2023-03-01T10:45:17.715Z,70.20
2023-03-01T10:48:39.988Z,69.80
2023-03-01T10:52:17.111Z,69.40
2023-03-01T10:55:40.710Z,68.80
2023-03-01T10:59:06.492Z,68.90
2023-03-01T11:02:33.833Z,69.10
2023-03-01T11:05:58.094Z,69.00
2023-03-01T11:09:24.615Z,68.30
2023-03-01T11:12:46.916Z,69.30
2023-03-01T11:16:12.334Z,69.60
2023-03-01T11:19:34.530Z,69.40
2023-03-01T11:23:02.421Z,69.70
2023-03-01T11:26:24.733Z,69.60
2023-03-01T11:29:53.834Z,70.30
2023-03-01T11:33:22.864Z,69.60
2023-03-01T11:36:47.465Z,70.20
2023-03-01T11:40:14.637Z,70.60
2023-03-01T11:43:36.844Z,71.00
2023-03-01T11:47:02.137Z,71.50
2023-03-01T11:50:50.847Z,72.20
2023-03-01T11:54:24.948Z,72.40
2023-03-01T11:58:07.386Z,73.20
2023-03-01T12:01:41.751Z,73.70
2023-03-01T12:05:23.431Z,74.10
2023-03-01T12:09:00.682Z,74.20
2023-03-01T12:12:46.760Z,75.30
2023-03-01T12:16:38.316Z,74.40
2023-03-01T12:20:18.998Z,75.60
2023-03-01T12:23:52.048Z,76.10
2023-03-01T12:27:14.143Z,76.20
2023-03-01T12:30:39.301Z,76.40
2023-03-01T12:34:01.633Z,76.40
2023-03-01T12:37:26.977Z,76.90
2023-03-01T12:40:54.957Z,76.20
2023-03-01T12:44:20.134Z,76.70
2023-03-01T12:48:14.900Z,75.50
2023-03-01T12:51:39.025Z,75.40
2023-03-01T12:55:02.443Z,76.00
2023-03-01T12:58:34.111Z,75.10
2023-03-01T13:02:05.611Z,74.10
2023-03-01T13:05:30.702Z,74.40
2023-03-01T13:09:08.220Z,74.10
2023-03-01T13:12:49.079Z,75.30
2023-03-01T13:16:23.848Z,74.90
2023-03-01T13:19:57.508Z,74.40
2023-03-01T13:23:22.505Z,74.80
2023-03-01T13:27:03.444Z,74.50
2023-03-01T13:30:39.707Z,74.30
2023-03-01T13:34:08.289Z,74.10
2023-03-01T13:37:34.762Z,74.80
2023-03-01T13:40:56.895Z,74.00
2023-03-01T13:44:28.165Z,73.30
2023-03-01T13:47:53.755Z,72.80
2023-03-01T13:51:15.916Z,73.30
2023-03-01T13:54:39.624Z,72.80
2023-03-01T13:58:03.591Z,72.80
2023-03-01T14:01:30.702Z,72.30
2023-03-01T14:05:00.417Z,72.40
2023-03-01T14:08:24.304Z,72.50
2023-03-01T14:11:49.261Z,72.80
2023-03-01T14:15:19.031Z,72.40
2023-03-01T14:18:44.274Z,71.70
2023-03-01T14:22:23.953Z,71.60
2023-03-01T14:25:50.241Z,72.40
2023-03-01T14:29:36.141Z,70.50
2023-03-01T14:32:59.526Z,71.20
2023-03-01T14:36:26.619Z,71.20
2023-03-01T14:39:49.367Z,71.30
2023-03-01T14:43:12.698Z,71.30
2023-03-01T14:46:40.288Z,71.40
2023-03-01T14:50:10.076Z,71.20
2023-03-01T14:53:40.146Z,71.40
2023-03-01T14:57:25.268Z,71.20
2023-03-01T15:00:50.269Z,71.10
2023-03-01T15:04:14.102Z,71.00
2023-03-01T15:07:38.143Z,71.00
2023-03-01T15:11:21.496Z,71.00
2023-03-01T15:14:52.224Z,71.10
2023-03-01T15:18:22.574Z,71.10
2023-03-01T15:21:45.886Z,70.90
2023-03-01T15:25:15.018Z,71.10
2023-03-01T15:28:41.255Z,71.10
2023-03-01T15:32:10.881Z,71.10
2023-03-01T15:35:42.886Z,70.10
2023-03-01T15:39:07.177Z,70.70
2023-03-01T15:42:29.320Z,70.80
2023-03-01T15:45:57.266Z,70.90
2023-03-01T15:49:46.497Z,71.00
2023-03-01T15:53:16.114Z,70.60
2023-03-01T15:56:38.336Z,70.20
2023-03-01T16:00:01.261Z,69.80
2023-03-01T16:03:23.991Z,69.90
2023-03-01T16:06:46.159Z,69.60
2023-03-01T16:10:08.438Z,70.10
2023-03-01T16:13:30.711Z,69.90
2023-03-01T16:16:52.967Z,69.80
2023-03-01T16:20:27.861Z,68.70
2023-03-01T16:23:52.097Z,68.50
2023-03-01T16:27:16.526Z,68.60
2023-03-01T16:30:40.370Z,69.10
2023-03-01T16:34:02.706Z,69.60
2023-03-01T16:37:24.799Z,70.10
2023-03-01T16:40:51.465Z,70.10
2023-03-01T16:44:13.574Z,70.00
2023-03-01T16:47:35.866Z,69.00
2023-03-01T16:50:59.172Z,69.20
2023-03-01T16:54:21.379Z,70.10
2023-03-01T16:57:43.514Z,69.60
2023-03-01T17:01:10.288Z,68.50
2023-03-01T17:04:32.876Z,68.00
2023-03-01T17:07:56.892Z,68.80
2023-03-01T17:11:20.089Z,68.80
2023-03-01T17:14:42.571Z,67.50
2023-03-01T17:18:04.889Z,67.00
2023-03-01T17:21:27.182Z,72.30
2023-03-01T17:24:49.362Z,70.00
2023-03-01T17:28:12.662Z,69.40
2023-03-01T17:31:35.055Z,69.30
2023-03-01T17:34:57.224Z,70.60
2023-03-01T17:38:19.415Z,70.40
2023-03-01T17:41:41.581Z,69.80
2023-03-01T17:45:03.918Z,69.00
2023-03-01T17:48:26.122Z,70.00
2023-03-01T17:51:48.248Z,70.00
2023-03-01T17:55:10.679Z,69.90
2023-03-01T17:58:33.033Z,69.90
2023-03-01T18:01:55.198Z,69.90
2023-03-01T18:05:17.335Z,69.90
2023-03-01T18:08:39.555Z,69.90
2023-03-01T18:12:01.803Z,69.70
2023-03-01T18:15:24.070Z,69.20
2023-03-01T18:18:46.327Z,69.10
2023-03-01T18:22:08.774Z,69.10
2023-03-01T18:25:30.921Z,69.10
2023-03-01T18:28:53.557Z,69.20
2023-03-01T18:32:15.860Z,69.10
2023-03-01T18:35:38.451Z,69.00
2023-03-01T18:39:04.710Z,68.80
2023-03-01T18:42:26.860Z,68.80
2023-03-01T18:45:49.374Z,68.10
2023-03-01T18:49:11.994Z,69.10
2023-03-01T18:52:34.146Z,69.90
2023-03-01T18:55:59.735Z,68.50
2023-03-01T18:59:21.904Z,68.60
2023-03-01T19:02:44.205Z,69.30
2023-03-01T19:06:06.438Z,68.20
2023-03-01T19:09:29.093Z,67.90
2023-03-01T19:12:51.329Z,69.50
2023-03-01T19:16:13.521Z,70.40
2023-03-01T19:19:36.310Z,69.30
2023-03-01T19:22:58.455Z,71.00
2023-03-01T19:26:22.077Z,74.90
2023-03-01T19:29:44.301Z,71.40
2023-03-01T19:33:06.531Z,70.80
2023-03-01T19:36:35.063Z,77.20
2023-03-01T19:39:57.217Z,73.70
2023-03-01T19:43:19.504Z,72.40
2023-03-01T19:46:41.819Z,73.40
2023-03-01T19:50:04.213Z,74.10
2023-03-01T19:53:26.431Z,74.40
2023-03-01T19:56:51.611Z,74.70
2023-03-01T20:00:14.242Z,75.00
2023-03-01T20:03:36.645Z,75.40
2023-03-01T20:06:58.760Z,75.30
2023-03-01T20:10:20.986Z,75.10
2023-03-01T20:13:43.229Z,76.20
2023-03-01T20:17:05.451Z,72.60
2023-03-01T20:20:27.585Z,75.00
2023-03-01T20:23:50.160Z,74.70
2023-03-01T20:27:12.320Z,73.90
2023-03-01T20:30:34.834Z,74.60
2023-03-01T20:33:57.623Z,75.10
2023-03-01T20:37:19.911Z,73.20
2023-03-01T20:40:42.049Z,73.50
2023-03-01T20:44:06.588Z,72.90
2023-03-01T20:47:28.798Z,72.70
2023-03-01T20:50:51.030Z,72.40
2023-03-01T20:54:13.496Z,71.20
2023-03-01T20:57:35.725Z,71.00
2023-03-01T21:00:57.910Z,74.30
2023-03-01T21:04:20.308Z,72.40
2023-03-01T21:07:42.988Z,73.70
2023-03-01T21:11:06.448Z,76.40
2023-03-01T21:14:29.460Z,76.50
2023-03-01T21:17:51.646Z,70.30
2023-03-01T21:21:16.054Z,74.60
2023-03-01T21:24:38.664Z,74.60
2023-03-01T21:28:01.115Z,74.50
2023-03-01T21:31:28.293Z,72.50
2023-03-01T21:34:50.544Z,74.80
2023-03-01T21:38:12.668Z,73.40
2023-03-01T21:41:36.442Z,73.90
2023-03-01T21:44:58.648Z,72.40
2023-03-01T21:48:21.209Z,74.90
2023-03-01T21:51:43.388Z,75.00
2023-03-01T21:55:05.837Z,70.70
2023-03-01T21:58:29.006Z,73.30
2023-03-01T22:01:51.877Z,76.20
2023-03-01T22:05:14.182Z,75.90
2023-03-01T22:08:36.320Z,72.90
2023-03-01T22:12:02.068Z,71.60
2023-03-01T22:15:25.002Z,72.40
2023-03-01T22:18:47.534Z,71.90
2023-03-01T22:22:09.657Z,71.80
2023-03-01T22:25:32.245Z,72.70
2023-03-01T22:28:55.394Z,73.20
2023-03-01T22:32:17.748Z,72.60
2023-03-01T22:35:43.176Z,72.40
2023-03-01T22:39:05.676Z,72.50
2023-03-01T22:42:27.886Z,72.60
2023-03-01T22:45:50.105Z,72.40
2023-03-01T22:49:12.501Z,72.60
2023-03-01T22:52:34.728Z,72.40
2023-03-01T22:55:56.834Z,72.40
2023-03-01T22:59:19.940Z,72.20
2023-03-01T23:02:42.228Z,71.90
2023-03-01T23:06:04.514Z,71.80
2023-03-01T23:09:30.808Z,71.70
2023-03-01T23:12:56.570Z,71.70
2023-03-01T23:16:19.054Z,71.50
2023-03-01T23:19:41.434Z,71.20
2023-03-01T23:23:03.840Z,71.00
2023-03-01T23:26:26.975Z,71.20
2023-03-01T23:29:51.834Z,71.10
2023-03-01T23:33:13.979Z,70.80
2023-03-01T23:36:36.282Z,70.70
2023-03-01T23:39:58.458Z,70.70
2023-03-01T23:43:20.590Z,70.20
2023-03-01T23:46:43.245Z,70.20
2023-03-01T23:50:05.671Z,70.00
2023-03-01T23:53:27.877Z,69.80
2023-03-01T23:56:50.415Z,69.80
